createdAt,value
2023-04-05T00:01:12.243Z,6.03
2023-04-05T00:03:43.593Z,6.20
2023-04-05T00:06:16.087Z,6.40
2023-04-05T00:08:48.650Z,6.63
2023-04-05T00:11:21.164Z,6.80
2023-04-05T00:13:52.751Z,5.40
2023-04-05T00:16:23.519Z,6.43
2023-04-05T00:18:55.263Z,6.80
2023-04-05T00:21:26.531Z,6.33
2023-04-05T00:23:58.983Z,6.03
2023-04-05T00:26:30.757Z,5.60
2023-04-05T00:29:01.635Z,5.20
2023-04-05T00:31:32.274Z,5.40
2023-04-05T00:34:02.954Z,5.00
2023-04-05T00:36:33.421Z,5.90
2023-04-05T00:39:04.277Z,6.07
2023-04-05T00:41:36.300Z,4.97
2023-04-05T00:44:07.861Z,5.03
2023-04-05T00:46:38.374Z,5.23
2023-04-05T00:49:09.574Z,5.97
2023-04-05T00:51:40.692Z,5.43
2023-04-05T00:54:12.752Z,4.50
2023-04-05T00:56:43.545Z,4.63
2023-04-05T00:59:15.012Z,4.60
2023-04-05T01:01:48.369Z,4.17
2023-04-05T01:04:21.291Z,4.63
2023-04-05T01:07:03.741Z,4.30
2023-04-05T01:09:49.835Z,3.80
2023-04-05T01:12:23.456Z,4.67
2023-04-05T01:14:55.895Z,4.70
2023-04-05T01:17:28.389Z,4.40
2023-04-05T01:20:03.674Z,4.03
2023-04-05T01:22:45.646Z,5.30
2023-04-05T01:25:26.267Z,4.53
2023-04-05T01:28:15.059Z,4.27
2023-04-05T01:30:52.808Z,4.60
2023-04-05T01:33:26.398Z,4.27
2023-04-05T01:36:16.695Z,3.73
2023-04-05T01:38:50.526Z,4.03
2023-04-05T01:41:22.212Z,4.00
2023-04-05T01:43:52.739Z,4.73
2023-04-05T01:46:23.357Z,5.00
2023-04-05T01:48:53.985Z,5.60
2023-04-05T01:51:25.595Z,5.40
2023-04-05T01:53:56.052Z,5.33
2023-04-05T01:56:27.433Z,6.03
2023-04-05T01:58:58.101Z,5.77
2023-04-05T02:01:28.827Z,7.50
2023-04-05T02:03:59.386Z,6.90
2023-04-05T02:06:30.982Z,7.90
2023-04-05T02:09:01.823Z,8.50
2023-04-05T02:11:32.385Z,10.73
2023-04-05T02:14:04.162Z,8.17
2023-04-05T02:16:36.798Z,8.50
2023-04-05T02:19:07.351Z,7.40
2023-04-05T02:21:38.221Z,7.90
2023-04-05T02:24:09.794Z,7.97
2023-04-05T02:26:40.517Z,7.63
2023-04-05T02:29:11.071Z,7.43
2023-04-05T02:31:42.477Z,7.40
2023-04-05T02:34:14.234Z,7.03
2023-04-05T02:36:45.184Z,7.27
2023-04-05T02:39:15.750Z,6.73
2023-04-05T02:41:47.001Z,5.90
2023-04-05T02:44:17.503Z,5.87
2023-04-05T02:46:48.129Z,7.07
2023-04-05T02:49:18.687Z,5.73
2023-04-05T02:51:49.190Z,4.83
2023-04-05T02:54:19.925Z,5.60
2023-04-05T02:56:51.955Z,6.03
2023-04-05T02:59:22.565Z,4.50
2023-04-05T03:01:53.220Z,4.60
2023-04-05T03:04:25.377Z,4.70
2023-04-05T03:06:57.310Z,5.07
2023-04-05T03:09:30.734Z,4.40
2023-04-05T03:12:05.412Z,4.70
2023-04-05T03:14:36.634Z,5.27
2023-04-05T03:17:08.244Z,5.63
2023-04-05T03:19:40.982Z,5.60
2023-04-05T03:22:11.538Z,4.77
2023-04-05T03:24:42.655Z,5.80
2023-04-05T03:27:14.991Z,5.70
2023-04-05T03:29:45.803Z,5.27
2023-04-05T03:32:17.235Z,4.87
2023-04-05T03:34:47.688Z,5.70
2023-04-05T03:37:18.169Z,5.63
2023-04-05T03:39:48.843Z,4.90
2023-04-05T03:42:21.030Z,5.33
2023-04-05T03:44:54.381Z,4.73
2023-04-05T03:47:27.129Z,5.20
2023-04-05T03:49:59.001Z,4.23
2023-04-05T03:52:29.752Z,4.77
2023-04-05T03:55:00.483Z,4.10
2023-04-05T03:57:31.792Z,4.97
2023-04-05T04:00:04.118Z,4.07
2023-04-05T04:02:34.767Z,3.67
2023-04-05T04:05:06.921Z,6.23
2023-04-05T04:07:37.474Z,4.37
2023-04-05T04:10:08.955Z,4.80
2023-04-05T04:12:40.049Z,4.57
2023-04-05T04:15:11.366Z,4.53
2023-04-05T04:17:41.961Z,4.40
2023-04-05T04:20:14.679Z,4.80
2023-04-05T04:22:45.902Z,6.33
2023-04-05T04:25:18.950Z,6.20
2023-04-05T04:27:50.629Z,5.27
2023-04-05T04:30:22.638Z,4.67
2023-04-05T04:32:54.924Z,5.57
2023-04-05T04:35:28.931Z,4.93
2023-04-05T04:38:04.698Z,5.60
2023-04-05T04:40:39.277Z,5.30
2023-04-05T04:43:18.264Z,6.67
2023-04-05T04:45:51.945Z,9.33
2023-04-05T04:48:22.791Z,10.10
2023-04-05T04:50:54.763Z,8.60
2023-04-05T04:53:25.496Z,8.20
2023-04-05T04:55:57.342Z,7.20
2023-04-05T04:58:27.912Z,5.97
2023-04-05T05:00:59.422Z,7.00
2023-04-05T05:03:30.516Z,5.40
2023-04-05T05:06:02.704Z,6.40
2023-04-05T05:08:33.362Z,6.00
2023-04-05T05:11:05.455Z,5.50
2023-04-05T05:13:36.562Z,5.10
2023-04-05T05:16:11.807Z,5.17
2023-04-05T05:18:44.256Z,5.80
2023-04-05T05:21:14.959Z,6.87
2023-04-05T05:23:47.112Z,5.57
2023-04-05T05:26:19.036Z,6.43
2023-04-05T05:28:50.048Z,5.30
2023-04-05T05:31:21.053Z,7.20
2023-04-05T05:33:52.757Z,4.87
2023-04-05T05:36:23.388Z,4.70
2023-04-05T05:38:57.639Z,5.47
2023-04-05T05:41:28.337Z,4.90
2023-04-05T05:44:02.118Z,5.33
2023-04-05T05:46:33.260Z,5.30
2023-04-05T05:49:07.345Z,4.90
2023-04-05T05:51:38.180Z,5.00
2023-04-05T05:54:08.801Z,4.73
2023-04-05T05:56:42.233Z,5.07
2023-04-05T05:59:13.077Z,4.93
2023-04-05T06:01:45.446Z,4.97
2023-04-05T06:04:16.670Z,4.20
2023-04-05T06:06:48.300Z,4.63
2023-04-05T06:09:19.380Z,5.93
2023-04-05T06:11:56.850Z,6.00
2023-04-05T06:14:30.096Z,5.60
2023-04-05T06:17:00.754Z,5.30
2023-04-05T06:19:33.050Z,4.60
2023-04-05T06:22:03.684Z,5.17
2023-04-05T06:24:34.361Z,5.70
2023-04-05T06:27:05.072Z,4.23
2023-04-05T06:29:36.352Z,4.97
2023-04-05T06:32:10.053Z,4.97
2023-04-05T06:34:41.281Z,4.40
2023-04-05T06:37:13.177Z,4.73
2023-04-05T06:39:43.759Z,4.70
2023-04-05T06:42:17.287Z,4.47
2023-04-05T06:44:48.929Z,4.77
2023-04-05T06:47:21.127Z,3.90
2023-04-05T06:49:51.979Z,3.73
2023-04-05T06:52:23.734Z,4.30
2023-04-05T06:54:54.428Z,4.27
2023-04-05T06:57:25.143Z,3.50
2023-04-05T06:59:56.932Z,4.30
2023-04-05T07:02:27.636Z,6.30
2023-04-05T07:04:59.982Z,3.93
2023-04-05T07:07:30.470Z,4.20
2023-04-05T07:10:01.141Z,4.10
2023-04-05T07:12:31.759Z,4.40
2023-04-05T07:15:02.889Z,4.50
2023-04-05T07:17:33.644Z,4.40
2023-04-05T07:20:06.409Z,3.93
2023-04-05T07:22:37.161Z,4.60
2023-04-05T07:25:09.651Z,4.63
2023-04-05T07:27:41.884Z,5.50
2023-04-05T07:30:14.548Z,4.50
2023-04-05T07:32:45.403Z,5.20
2023-04-05T07:35:19.201Z,4.92
2023-04-05T07:37:50.093Z,4.90
2023-04-05T07:40:20.995Z,4.65
2023-04-05T07:42:51.717Z,4.93
2023-04-05T07:45:24.407Z,5.20
2023-04-05T07:47:54.925Z,5.30
2023-04-05T07:50:27.590Z,6.43
2023-04-05T07:52:58.142Z,6.60
2023-04-05T07:55:30.035Z,6.40
2023-04-05T07:58:02.015Z,7.30
2023-04-05T08:00:33.536Z,5.80
2023-04-05T08:03:05.073Z,5.40
2023-04-05T08:05:39.598Z,4.87
2023-04-05T08:08:11.215Z,5.00
2023-04-05T08:10:42.286Z,5.63
2023-04-05T08:13:15.316Z,5.27
2023-04-05T08:15:45.944Z,5.00
2023-04-05T08:18:16.795Z,5.03
2023-04-05T08:20:53.035Z,5.27
2023-04-05T08:23:23.950Z,4.53
2023-04-05T08:25:55.604Z,9.13
2023-04-05T08:28:26.220Z,6.63
2023-04-05T08:30:57.928Z,4.87
2023-04-05T08:33:30.384Z,4.83
2023-04-05T08:36:06.895Z,4.90
2023-04-05T08:38:37.918Z,7.93
2023-04-05T08:41:21.061Z,8.17
2023-04-05T08:44:03.426Z,4.70
2023-04-05T08:46:35.520Z,5.33
2023-04-05T08:49:09.089Z,5.10
2023-04-05T08:51:40.430Z,5.23
2023-04-05T08:54:14.499Z,5.20
2023-04-05T08:56:49.509Z,5.67
2023-04-05T08:59:21.558Z,6.13
2023-04-05T09:01:54.290Z,5.50
2023-04-05T09:04:28.614Z,6.30
2023-04-05T09:07:01.869Z,5.78
2023-04-05T09:09:34.965Z,5.30
2023-04-05T09:12:08.791Z,5.80
2023-04-05T09:14:42.170Z,5.37
2023-04-05T09:17:14.039Z,4.50
2023-04-05T09:19:44.777Z,5.23
2023-04-05T09:22:17.166Z,6.78
2023-04-05T09:24:48.680Z,6.22
2023-04-05T09:27:20.865Z,4.83
2023-04-05T09:29:51.780Z,4.92
2023-04-05T09:32:26.834Z,5.00
2023-04-05T09:35:02.706Z,7.20
2023-04-05T09:37:34.037Z,5.58
2023-04-05T09:40:06.960Z,4.87
2023-04-05T09:42:47.586Z,4.17
2023-04-05T09:45:19.689Z,4.97
2023-04-05T09:47:58.537Z,7.15
2023-04-05T09:50:29.762Z,4.65
2023-04-05T09:53:19.336Z,4.62
2023-04-05T09:55:50.427Z,5.10
2023-04-05T09:58:22.744Z,5.80
2023-04-05T10:01:06.168Z,4.93
2023-04-05T10:03:28.229Z,4.53
2023-04-05T10:06:00.399Z,4.78
2023-04-05T10:08:31.436Z,4.87
2023-04-05T10:11:04.633Z,5.00
2023-04-05T10:13:37.196Z,4.78
2023-04-05T10:16:10.808Z,4.87
2023-04-05T10:18:47.039Z,4.55
2023-04-05T10:21:20.674Z,5.28
2023-04-05T10:23:59.948Z,5.23
2023-04-05T10:26:39.886Z,5.20
2023-04-05T10:29:16.449Z,5.70
2023-04-05T10:31:53.256Z,4.80
2023-04-05T10:34:33.290Z,5.72
2023-04-05T10:37:08.198Z,4.92
2023-04-05T10:39:44.919Z,4.67
2023-04-05T10:42:24.355Z,4.80
2023-04-05T10:45:01.252Z,5.00
2023-04-05T10:47:35.121Z,5.20
2023-04-05T10:50:10.239Z,5.05
2023-04-05T10:52:42.361Z,6.17
2023-04-05T10:55:14.621Z,4.53
2023-04-05T10:57:47.036Z,4.72
2023-04-05T11:00:19.953Z,4.60
2023-04-05T11:02:53.855Z,4.30
2023-04-05T11:05:35.996Z,4.37
2023-04-05T11:08:12.458Z,4.40
2023-04-05T11:10:45.946Z,4.30
2023-04-05T11:13:16.448Z,4.20
2023-04-05T11:15:47.202Z,4.17
2023-04-05T11:18:20.828Z,4.10
2023-04-05T11:20:58.025Z,4.22
2023-04-05T11:23:29.972Z,4.53
2023-04-05T11:26:07.628Z,4.20
2023-04-05T11:28:42.196Z,4.35
2023-04-05T11:31:19.552Z,4.35
2023-04-05T11:33:56.866Z,3.83
2023-04-05T11:36:46.011Z,4.17
2023-04-05T11:39:22.802Z,4.40
2023-04-05T11:42:05.706Z,4.17
2023-04-05T11:44:45.149Z,4.08
2023-04-05T11:47:22.736Z,4.58
2023-04-05T11:49:53.512Z,4.33
2023-04-05T11:52:24.172Z,4.37
2023-04-05T11:54:54.617Z,3.87
2023-04-05T11:57:25.784Z,4.05
2023-04-05T11:59:56.769Z,3.70
2023-04-05T12:02:27.538Z,4.42
2023-04-05T12:04:59.210Z,3.62
2023-04-05T12:07:33.132Z,3.55
2023-04-05T12:10:14.615Z,3.80
2023-04-05T12:12:51.141Z,3.90
2023-04-05T12:15:21.839Z,3.75
2023-04-05T12:17:54.738Z,3.60
2023-04-05T12:20:26.640Z,3.60
2023-04-05T12:22:58.448Z,3.40
2023-04-05T12:25:30.192Z,9.43
2023-04-05T12:28:09.044Z,4.00
2023-04-05T12:30:50.927Z,4.62
2023-04-05T12:33:36.016Z,3.53
2023-04-05T12:36:10.317Z,3.62
2023-04-05T12:38:41.896Z,3.70
2023-04-05T12:41:12.644Z,4.20
2023-04-05T12:43:44.356Z,3.80
2023-04-05T12:46:18.687Z,3.85
2023-04-05T12:48:53.021Z,3.83
2023-04-05T12:51:25.059Z,4.03
2023-04-05T12:53:58.581Z,5.15
2023-04-05T12:56:30.951Z,3.67
2023-04-05T12:59:01.598Z,4.55
2023-04-05T13:01:32.259Z,4.13
2023-04-05T13:04:15.398Z,5.67
2023-04-05T13:06:37.842Z,4.73
2023-04-05T13:09:08.698Z,3.93
2023-04-05T13:11:42.391Z,4.25
2023-04-05T13:14:13.161Z,4.20
2023-04-05T13:16:44.980Z,3.58
2023-04-05T13:19:15.904Z,4.00
2023-04-05T13:21:46.659Z,4.03
2023-04-05T13:24:17.226Z,4.30
2023-04-05T13:26:49.403Z,4.73
2023-04-05T13:29:20.186Z,4.20
2023-04-05T13:31:52.850Z,4.00
2023-04-05T13:34:25.193Z,3.65
2023-04-05T13:36:55.827Z,4.00
2023-04-05T13:39:27.914Z,3.90
2023-04-05T13:41:58.528Z,4.00
2023-04-05T13:44:29.736Z,4.00
2023-04-05T13:47:00.801Z,4.45
2023-04-05T13:49:31.405Z,4.05
2023-04-05T13:52:02.934Z,3.80
2023-04-05T13:54:33.581Z,3.58
2023-04-05T13:57:05.548Z,3.90
2023-04-05T13:59:36.426Z,3.90
2023-04-05T14:02:07.192Z,3.67
2023-04-05T14:04:38.258Z,5.17
2023-04-05T14:07:09.143Z,4.00
2023-04-05T14:09:39.852Z,4.08
2023-04-05T14:12:11.583Z,3.52
2023-04-05T14:14:43.892Z,4.13
2023-04-05T14:17:14.585Z,3.60
2023-04-05T14:19:45.590Z,4.13
2023-04-05T14:22:16.771Z,3.77
2023-04-05T14:24:47.548Z,4.08
2023-04-05T14:27:18.234Z,4.00
2023-04-05T14:29:49.063Z,3.92
2023-04-05T14:32:20.348Z,3.75
2023-04-05T14:34:50.932Z,3.92
2023-04-05T14:37:23.517Z,3.55
2023-04-05T14:39:54.332Z,3.60
2023-04-05T14:42:34.193Z,3.60
2023-04-05T14:44:57.636Z,3.83
2023-04-05T14:47:28.622Z,3.60
2023-04-05T14:49:59.347Z,3.45
2023-04-05T14:52:30.737Z,3.40
2023-04-05T14:55:01.431Z,3.40
2023-04-05T14:57:33.665Z,3.90
2023-04-05T15:00:04.719Z,3.35
2023-04-05T15:02:37.901Z,3.62
2023-04-05T15:05:09.621Z,3.40
2023-04-05T15:07:40.525Z,4.03
2023-04-05T15:10:11.670Z,3.20
2023-04-05T15:12:44.372Z,3.45
2023-04-05T15:15:17.919Z,3.80
2023-04-05T15:17:48.534Z,3.58
2023-04-05T15:20:19.456Z,3.27
2023-04-05T15:22:50.866Z,4.08
2023-04-05T15:25:21.543Z,3.62
2023-04-05T15:27:54.845Z,3.77
2023-04-05T15:30:27.112Z,3.97
2023-04-05T15:32:57.774Z,4.10
2023-04-05T15:35:28.665Z,3.80
2023-04-05T15:38:00.443Z,4.03
2023-04-05T15:40:31.224Z,4.15
2023-04-05T15:43:01.908Z,3.70
2023-04-05T15:45:34.581Z,4.00
2023-04-05T15:48:05.236Z,5.60
2023-04-05T15:50:37.436Z,3.80
2023-04-05T15:53:08.844Z,3.87
2023-04-05T15:55:39.467Z,3.80
2023-04-05T15:58:10.275Z,3.47
2023-04-05T16:00:41.661Z,4.22
2023-04-05T16:03:12.500Z,3.75
2023-04-05T16:05:43.181Z,3.80
2023-04-05T16:08:14.177Z,3.95
2023-04-05T16:10:45.060Z,4.58
2023-04-05T16:13:15.807Z,3.90
2023-04-05T16:15:46.376Z,3.57
2023-04-05T16:18:19.317Z,3.77
2023-04-05T16:20:51.220Z,3.80
2023-04-05T16:23:21.819Z,3.60
2023-04-05T16:25:52.734Z,3.90
2023-04-05T16:28:23.359Z,3.40
2023-04-05T16:30:54.055Z,4.07
2023-04-05T16:33:24.689Z,4.47
2023-04-05T16:35:56.248Z,3.43
2023-04-05T16:38:27.192Z,3.72
2023-04-05T16:40:58.530Z,3.15
2023-04-05T16:43:29.041Z,3.60
2023-04-05T16:45:59.844Z,3.85
2023-04-05T16:48:32.305Z,3.70
2023-04-05T16:51:05.689Z,3.52
2023-04-05T16:53:35.933Z,3.30
2023-04-05T16:56:07.205Z,3.33
2023-04-05T16:58:39.115Z,3.47
2023-04-05T17:01:09.698Z,3.70
2023-04-05T17:03:41.986Z,3.40
2023-04-05T17:06:13.574Z,3.77
2023-04-05T17:08:44.153Z,3.20
2023-04-05T17:11:14.785Z,4.00
2023-04-05T17:13:47.150Z,4.00
2023-04-05T17:16:18.239Z,3.50
2023-04-05T17:18:48.785Z,3.30
2023-04-05T17:21:23.376Z,3.17
2023-04-05T17:23:55.228Z,3.75
2023-04-05T17:26:26.553Z,3.17
2023-04-05T17:28:57.233Z,2.95
2023-04-05T17:31:28.005Z,3.05
2023-04-05T17:34:01.529Z,3.52
2023-04-05T17:36:33.081Z,3.80
2023-04-05T17:39:04.048Z,3.63
2023-04-05T17:41:37.351Z,4.00
2023-04-05T17:44:10.654Z,4.00
2023-04-05T17:46:46.312Z,4.10
2023-04-05T17:49:15.858Z,4.17
2023-04-05T17:51:48.881Z,4.85
2023-04-05T17:54:19.528Z,4.72
2023-04-05T17:56:51.987Z,4.40
2023-04-05T17:59:23.447Z,4.25
2023-04-05T18:01:55.442Z,4.47
2023-04-05T18:04:27.567Z,4.70
2023-04-05T18:06:59.186Z,5.17
2023-04-05T18:09:31.705Z,5.50
2023-04-05T18:12:05.450Z,4.90
2023-04-05T18:14:37.788Z,5.13
2023-04-05T18:17:08.798Z,5.20
2023-04-05T18:19:39.374Z,5.45
2023-04-05T18:22:11.393Z,5.62
2023-04-05T18:24:45.113Z,6.10
2023-04-05T18:27:16.273Z,5.97
2023-04-05T18:29:48.604Z,5.30
2023-04-05T18:32:19.476Z,5.50
2023-04-05T18:34:50.380Z,5.28
2023-04-05T18:37:21.417Z,5.17
2023-04-05T18:39:52.180Z,5.90
2023-04-05T18:42:22.932Z,8.25
2023-04-05T18:44:54.904Z,6.65
2023-04-05T18:47:25.740Z,6.10
2023-04-05T18:49:56.373Z,5.58
2023-04-05T18:52:28.596Z,6.80
2023-04-05T18:54:59.910Z,5.27
2023-04-05T18:57:30.886Z,4.70
2023-04-05T19:00:02.884Z,4.77
2023-04-05T19:02:33.711Z,4.90
2023-04-05T19:05:04.307Z,4.30
2023-04-05T19:07:34.974Z,4.55
2023-04-05T19:10:06.408Z,5.53
2023-04-05T19:12:36.830Z,5.33
2023-04-05T19:15:08.466Z,5.47
2023-04-05T19:17:39.837Z,5.70
2023-04-05T19:20:11.133Z,4.70
2023-04-05T19:22:41.827Z,5.75
2023-04-05T19:25:12.459Z,6.07
2023-04-05T19:27:42.986Z,6.12
2023-04-05T19:30:13.682Z,6.10
2023-04-05T19:32:44.402Z,4.87
2023-04-05T19:35:16.784Z,4.42
2023-04-05T19:37:47.352Z,4.10
2023-04-05T19:40:19.364Z,4.60
2023-04-05T19:42:50.622Z,4.67
2023-04-05T19:45:27.389Z,4.62
2023-04-05T19:48:01.240Z,4.70
2023-04-05T19:50:44.165Z,4.90
2023-04-05T19:53:37.708Z,4.93
2023-04-05T19:56:16.447Z,4.83
2023-04-05T19:58:49.486Z,5.53
2023-04-05T20:01:34.744Z,6.00
2023-04-05T20:04:10.531Z,6.05
2023-04-05T20:06:42.868Z,5.70
2023-04-05T20:09:18.960Z,5.27
2023-04-05T20:11:57.880Z,5.47
2023-04-05T20:14:44.040Z,6.20
2023-04-05T20:17:19.251Z,6.17
2023-04-05T20:20:01.279Z,5.57
2023-04-05T20:22:38.179Z,5.80
2023-04-05T20:25:31.158Z,5.40
2023-04-05T20:28:03.220Z,5.67
2023-04-05T20:30:35.184Z,5.57
2023-04-05T20:33:09.517Z,6.40
2023-04-05T20:35:40.383Z,6.10
2023-04-05T20:38:10.930Z,6.43
2023-04-05T20:40:42.839Z,6.95
2023-04-05T20:43:14.879Z,6.70
2023-04-05T20:45:50.634Z,8.53
2023-04-05T20:48:25.350Z,11.13
2023-04-05T20:50:56.005Z,11.33
2023-04-05T20:53:29.648Z,8.87
2023-04-05T20:56:03.551Z,8.90
2023-04-05T20:58:36.846Z,7.13
2023-04-05T21:01:08.278Z,7.33
2023-04-05T21:03:41.357Z,7.80
2023-04-05T21:06:12.704Z,7.57
2023-04-05T21:08:43.584Z,7.83
2023-04-05T21:11:14.285Z,7.17
2023-04-05T21:13:46.673Z,7.00
2023-04-05T21:16:17.329Z,6.33
2023-04-05T21:18:47.961Z,7.50
2023-04-05T21:21:18.454Z,6.83
2023-04-05T21:23:50.692Z,6.90
2023-04-05T21:26:21.405Z,7.50
2023-04-05T21:28:52.005Z,6.93
2023-04-05T21:31:23.286Z,7.87
2023-04-05T21:33:54.365Z,7.87
2023-04-05T21:36:27.285Z,7.07
2023-04-05T21:38:57.937Z,7.10
2023-04-05T21:41:29.628Z,9.20
2023-04-05T21:44:00.279Z,8.27
2023-04-05T21:46:31.145Z,7.83
2023-04-05T21:49:01.950Z,7.23
2023-04-05T21:51:32.680Z,6.77
2023-04-05T21:54:03.313Z,8.07
2023-04-05T21:56:36.796Z,7.83
2023-04-05T21:59:07.628Z,7.17
2023-04-05T22:01:38.712Z,7.40
2023-04-05T22:04:09.226Z,8.97
2023-04-05T22:06:40.871Z,8.17
2023-04-05T22:09:11.428Z,7.20
2023-04-05T22:11:42.248Z,7.13
2023-04-05T22:14:12.806Z,8.57
2023-04-05T22:16:45.360Z,8.33
2023-04-05T22:19:15.993Z,7.57
2023-04-05T22:21:46.597Z,7.63
2023-04-05T22:24:17.252Z,7.43
2023-04-05T22:26:51.332Z,6.87
2023-04-05T22:29:22.538Z,7.20
2023-04-05T22:31:53.602Z,7.07
2023-04-05T22:34:24.382Z,7.37
2023-04-05T22:36:56.647Z,8.27
2023-04-05T22:39:27.909Z,7.40
2023-04-05T22:41:59.652Z,7.63
2023-04-05T22:44:30.255Z,7.70
2023-04-05T22:47:00.967Z,7.77
2023-04-05T22:49:31.877Z,8.17
2023-04-05T22:52:02.546Z,6.90
2023-04-05T22:54:33.054Z,7.20
2023-04-05T22:57:05.969Z,7.50
2023-04-05T22:59:38.363Z,6.87
2023-04-05T23:02:10.104Z,7.50
2023-04-05T23:04:41.307Z,7.27
2023-04-05T23:07:11.887Z,7.67
2023-04-05T23:09:42.696Z,7.27
2023-04-05T23:12:13.259Z,6.80
2023-04-05T23:14:43.845Z,7.50
2023-04-05T23:17:14.739Z,8.03
2023-04-05T23:19:45.650Z,6.83
2023-04-05T23:22:16.168Z,7.53
2023-04-05T23:24:46.905Z,6.87
2023-04-05T23:27:17.599Z,7.10
2023-04-05T23:29:48.102Z,7.47
2023-04-05T23:32:18.745Z,7.47
2023-04-05T23:34:49.851Z,7.10
2023-04-05T23:37:20.895Z,6.83
2023-04-05T23:39:51.746Z,6.10
2023-04-05T23:42:22.338Z,6.03
2023-04-05T23:44:52.785Z,6.23
2023-04-05T23:47:26.382Z,5.87
2023-04-05T23:49:58.261Z,6.13
2023-04-05T23:52:30.370Z,6.90
2023-04-05T23:55:02.792Z,7.10
2023-04-05T23:57:35.037Z,5.87
